Flight Track Log - Related Links

Times and Time Zones

All times are in EDT time to prevent confusion due to time zone crossing. See the ABX904 flight status page for this flight to view local times or setup timezone preferences in your user account.

Time Position Orientation Groundspeed Altitude Reporting Facility
EDT Latitude Longitude Course Direction KTS MPH feet Rate Location/Type
Tue 11:16:19 AM 47.5144 -122.2897 154° Southeast 146 168 900  Level Seattle Center
Tue 11:17:21 AM 47.4703 -122.2581 154° Southeast 177 204 3,100 2,195 Climbing Seattle Center
Tue 11:18:22 AM 47.4653 -122.1814 95° East 237 273 5,400 2,737 Climbing Seattle Center
Tue 11:19:15 AM 47.5269 -122.1808 360° North 264 304 8,300 3,443 Climbing Seattle Center
Tue 11:19:23 AM 47.5381 -122.1836 350° North 252 290 8,900 2,522 Climbing Seattle Center
Tue 11:20:24 AM 47.6128 -122.2017 351° North 277 319 11,200 1,525 Climbing Seattle Center
Tue 11:21:25 AM 47.7011 -122.2242 350° North 326 375 12,000 393 Climbing Seattle Center
Tue 11:22:26 AM 47.7875 -122.2447 351° North 321 369 12,000  Level Seattle Center
Tue 11:23:27 AM 47.8767 -122.2664 351° North 319 367 12,000  Level Seattle Center
Tue 11:24:28 AM 47.9633 -122.2903 350° North 319 367 12,000  Level Seattle Center
Tue 11:25:29 AM 48.0494 -122.3156 349° North 317 365 12,000  Level Seattle Center
Tue 11:26:30 AM 48.1361 -122.3400 349° North 317 365 12,000  Level Seattle Center
Tue 11:27:31 AM 48.2231 -122.3656 349° North 320 368 12,000  Level Seattle Center
Tue 11:28:32 AM 48.3097 -122.3914 349° North 319 367 12,000  Level Seattle Center
Tue 11:29:33 AM 48.3969 -122.4158 349° North 320 368 12,000  Level Seattle Center
Tue 11:30:33 AM 48.5000 -122.4478 348° North 316 364 12,000  Level Seattle Center
Tue 11:31:34 AM 48.5881 -122.4719 350° North 318 366 12,000  Level Seattle Center
Tue 11:32:35 AM 48.6758 -122.4969 349° North 322 371 12,000  Level Seattle Center
Tue 11:33:36 AM 48.7469 -122.5711 325° Northwest 319 367 12,000  Level Seattle Center
Tue 11:34:51 AM 48.8000 -122.6833 306° West 320 368 12,000  Level Vancouver Center
Tue 11:35:51 AM 48.8667 -122.7833 315° West 320 368 12,000 -700 Level Vancouver Center
Tue 11:36:51 AM 48.9167 -122.8833 307° West 310 357 10,600 -850 Descending Vancouver Center
Tue 11:37:51 AM 48.9667 -122.9833 307° West 300 345 10,300 -300 Descending Vancouver Center
Tue 11:38:51 AM 49.0167 -123.0833 307° West 290 334 10,000 -1,150 Descending Vancouver Center
Tue 11:39:51 AM 49.0667 -123.1667 312° West 270 311 8,000 -1,750 Descending Vancouver Center
Tue 11:40:51 AM 49.0833 -123.2833 282° West 250 288 6,500 -1,250 Descending Vancouver Center
Tue 11:41:51 AM 49.1000 -123.3667 287° West 240 276 5,500 -1,200 Descending Vancouver Center
Tue 11:42:51 AM 49.1167 -123.4667 284° West 240 276 4,100 -1,000 Descending Vancouver Center
Tue 11:43:51 AM 49.1667 -123.4667 360° North 220 253 3,500 -850 Descending Vancouver Center
Tue 11:44:51 AM 49.1833 -123.3833 73° East 200 230 2,400 -1,050 Descending Vancouver Center
Tue 11:45:51 AM 49.1833 -123.3167 90° East 180 207 1,400 -850 Descending Vancouver Center
Tue 11:46:51 AM 49.1667 -123.2667 117° Southeast 130 150 700 -650 Descending Vancouver Center
Tue 11:47:51 AM 49.1667 -123.2167 90° East 110 127 100 -600 Descending Vancouver Center

Login

Don't have an account? Register now (free) for customized features, flight alerts, and more!